createdAt,value
2018-06-23T00:01:40.012Z,97469.86
2018-06-23T00:04:06.829Z,97472.84
2018-06-23T00:06:33.587Z,97463.52
2018-06-23T00:09:00.314Z,97466.41
2018-06-23T00:11:27.024Z,97459.67
2018-06-23T00:13:53.775Z,97463.52
2018-06-23T00:16:20.501Z,97438.28
2018-06-23T00:18:47.255Z,97463.80
2018-06-23T00:21:13.962Z,97463.55
2018-06-23T00:23:40.610Z,97469.51
2018-06-23T00:26:13.021Z,97467.77
2018-06-23T00:28:39.781Z,97465.66
2018-06-23T00:31:06.489Z,97461.31
2018-06-23T00:33:33.181Z,97466.05
2018-06-23T00:35:59.888Z,97463.64
2018-06-23T00:38:26.566Z,97458.71
2018-06-23T00:40:53.341Z,97458.62
2018-06-23T00:43:20.074Z,97429.33
2018-06-23T00:45:46.762Z,97461.50
2018-06-23T00:48:13.515Z,97459.08
2018-06-23T00:50:40.293Z,97456.09
2018-06-23T00:53:07.077Z,97451.16
2018-06-23T00:55:33.804Z,97445.91
2018-06-23T00:58:00.560Z,97438.11
2018-06-23T01:00:27.344Z,97413.47
2018-06-23T01:02:54.044Z,97447.05
2018-06-23T01:05:20.823Z,97452.95
2018-06-23T01:07:47.525Z,97450.03
2018-06-23T01:10:14.293Z,97449.97
2018-06-23T01:12:41.058Z,97448.13
2018-06-23T01:15:07.788Z,97451.17
2018-06-23T01:17:34.473Z,97453.98
2018-06-23T01:20:01.240Z,97454.31
2018-06-23T01:22:27.945Z,97451.59
2018-06-23T01:24:54.672Z,97447.27
2018-06-23T01:27:21.403Z,97449.97
2018-06-23T01:29:48.081Z,97442.83
2018-06-23T01:32:14.790Z,97441.20
2018-06-23T01:34:41.511Z,97444.66
2018-06-23T01:37:08.250Z,97439.20
2018-06-23T01:39:34.977Z,97443.04
2018-06-23T01:42:02.242Z,97435.13
2018-06-23T01:44:28.937Z,97438.47
2018-06-23T01:46:55.697Z,97443.41
2018-06-23T01:49:22.370Z,97441.79
2018-06-23T01:51:49.032Z,97438.90
2018-06-23T01:54:15.805Z,97441.11
2018-06-23T01:56:42.499Z,97446.96
2018-06-23T01:59:09.165Z,97440.61
2018-06-23T02:01:36.651Z,97441.78
2018-06-23T02:04:03.401Z,97437.70
2018-06-23T02:06:30.187Z,97441.16
2018-06-23T02:08:56.881Z,97437.70
2018-06-23T02:11:23.702Z,97437.45
2018-06-23T02:13:56.305Z,97435.61
2018-06-23T02:16:28.647Z,97437.06
2018-06-23T02:19:01.203Z,97431.87
2018-06-23T02:21:33.561Z,97430.63
2018-06-23T02:24:06.124Z,97431.81
2018-06-23T02:26:38.572Z,97432.19
2018-06-23T02:29:10.953Z,97430.89
2018-06-23T02:31:49.159Z,97449.20
2018-06-23T02:34:24.730Z,97433.61
2018-06-23T02:36:58.303Z,97432.45
2018-06-23T02:39:27.133Z,97435.19
2018-06-23T02:41:53.827Z,97437.20
2018-06-23T02:47:06.201Z,97444.86
2018-06-23T02:49:32.929Z,97446.10
2018-06-23T02:51:59.627Z,97447.13
2018-06-23T02:54:26.318Z,97445.59
2018-06-23T02:56:53.017Z,97443.38
2018-06-23T02:59:19.982Z,97443.56
2018-06-23T03:01:46.978Z,97446.88
2018-06-23T03:04:13.739Z,97456.89
2018-06-23T03:06:40.450Z,97454.53
2018-06-23T03:09:07.205Z,97459.28
2018-06-23T03:11:34.036Z,97464.53
2018-06-23T03:14:00.741Z,97469.01
2018-06-23T03:16:27.494Z,97469.92
2018-06-23T03:18:54.274Z,97473.41
2018-06-23T03:21:21.052Z,97472.44
2018-06-23T03:23:47.777Z,97468.69
2018-06-23T03:26:14.497Z,97471.80
2018-06-23T03:28:41.257Z,97473.16
2018-06-23T03:31:08.048Z,97476.61
2018-06-23T03:33:34.766Z,97469.26
2018-06-23T03:36:01.503Z,97464.79
2018-06-23T03:38:28.310Z,97462.58
2018-06-23T03:40:55.115Z,97463.11
2018-06-23T03:43:21.917Z,97462.63
2018-06-23T03:45:48.930Z,97465.67
2018-06-23T03:48:15.718Z,97461.58
2018-06-23T03:50:42.467Z,97337.45
2018-06-23T03:53:09.352Z,97462.28
2018-06-23T03:55:36.139Z,97461.69
2018-06-23T03:58:02.883Z,97467.12
2018-06-23T04:00:30.558Z,97460.44
2018-06-23T04:02:57.797Z,97457.25
2018-06-23T04:05:24.564Z,97458.02
2018-06-23T04:07:51.372Z,97458.02
2018-06-23T04:10:22.137Z,97456.05
2018-06-23T04:12:48.894Z,97458.88
2018-06-23T04:15:15.659Z,97455.70
2018-06-23T04:17:42.387Z,97459.59
2018-06-23T04:20:09.128Z,97458.82
2018-06-23T04:22:35.949Z,97441.50
2018-06-23T04:25:02.694Z,97461.54
2018-06-23T04:27:29.490Z,97467.45
2018-06-23T04:29:56.288Z,97473.96
2018-06-23T04:32:23.081Z,97469.60
2018-06-23T04:34:49.872Z,97471.67
2018-06-23T04:37:16.651Z,97323.98
2018-06-23T04:39:43.455Z,97470.25
2018-06-23T04:42:10.267Z,97472.27
2018-06-23T04:44:37.058Z,97478.16
2018-06-23T04:47:03.816Z,97475.63
2018-06-23T04:49:30.683Z,97477.77
2018-06-23T04:51:57.473Z,97483.88
2018-06-23T04:54:24.361Z,97479.72
2018-06-23T04:56:51.138Z,97482.81
2018-06-23T04:59:17.977Z,97481.16
2018-06-23T05:01:44.803Z,97494.75
2018-06-23T05:04:11.589Z,97489.26
2018-06-23T05:06:38.378Z,97487.92
2018-06-23T05:09:06.001Z,97488.98
2018-06-23T05:11:32.854Z,97494.30
2018-06-23T05:14:00.052Z,97498.39
2018-06-23T05:16:26.841Z,97401.98
2018-06-23T05:18:53.699Z,97487.23
2018-06-23T05:21:20.487Z,97485.66
2018-06-23T05:23:47.225Z,97490.97
2018-06-23T05:26:14.021Z,97491.55
2018-06-23T05:28:40.828Z,97492.84
2018-06-23T05:31:07.537Z,97492.63
2018-06-23T05:33:34.319Z,97492.02
2018-06-23T05:36:01.046Z,97498.19
2018-06-23T05:38:27.838Z,97499.29
2018-06-23T05:40:54.648Z,97495.80
2018-06-23T05:43:21.457Z,97495.63
2018-06-23T05:45:49.282Z,97489.36
2018-06-23T05:48:16.106Z,97486.88
2018-06-23T05:50:43.285Z,97484.34
2018-06-23T05:53:10.135Z,97488.08
2018-06-23T05:55:40.653Z,97455.31
2018-06-23T05:58:07.484Z,97483.14
2018-06-23T06:00:34.263Z,97489.95
2018-06-23T06:03:01.586Z,97490.02
2018-06-23T06:05:28.997Z,97491.02
2018-06-23T06:07:56.389Z,97486.81
2018-06-23T06:10:23.745Z,97483.02
2018-06-23T06:12:51.043Z,97481.83
2018-06-23T06:15:18.401Z,97486.34
2018-06-23T06:17:46.981Z,97492.72
2018-06-23T06:20:15.277Z,97484.53
2018-06-23T06:22:43.758Z,97491.16
2018-06-23T06:25:11.836Z,97492.55
2018-06-23T06:27:39.405Z,97492.94
2018-06-23T06:30:07.985Z,97491.97
2018-06-23T06:32:35.329Z,97491.96
2018-06-23T06:35:02.850Z,97492.85
2018-06-23T06:37:30.455Z,97492.67
2018-06-23T06:40:05.211Z,97491.41
2018-06-23T06:42:32.653Z,97487.52
2018-06-23T06:44:59.991Z,97491.02
2018-06-23T06:47:27.447Z,97487.11
2018-06-23T06:49:54.902Z,97483.23
2018-06-23T06:52:22.288Z,97487.61
2018-06-23T06:54:49.737Z,97481.46
2018-06-23T06:57:17.172Z,97483.14
2018-06-23T06:59:44.617Z,97467.52
2018-06-23T07:02:12.088Z,97470.09
2018-06-23T07:04:39.475Z,97470.02
2018-06-23T07:07:06.887Z,97469.61
2018-06-23T07:09:34.185Z,97474.91
2018-06-23T07:12:01.565Z,97474.23
2018-06-23T07:14:28.954Z,97469.02
2018-06-23T07:16:56.330Z,97471.77
2018-06-23T07:19:23.676Z,97460.47
2018-06-23T07:21:50.992Z,97461.09
2018-06-23T07:24:18.338Z,97471.51
2018-06-23T07:26:45.810Z,97472.13
2018-06-23T07:29:13.200Z,97471.16
2018-06-23T07:31:40.600Z,97470.20
2018-06-23T07:34:07.898Z,97470.19
2018-06-23T07:36:35.345Z,97467.01
2018-06-23T07:39:03.579Z,97466.31
2018-06-23T07:41:30.888Z,97476.21
2018-06-23T07:43:58.303Z,97470.56
2018-06-23T07:46:25.805Z,97472.55
2018-06-23T07:48:53.119Z,97469.80
2018-06-23T07:51:20.579Z,97467.01
2018-06-23T07:53:47.926Z,97457.88
2018-06-23T07:56:15.286Z,97449.14
2018-06-23T07:58:42.654Z,97450.82
2018-06-23T08:01:10.049Z,97447.12
2018-06-23T08:03:37.814Z,97453.33
2018-06-23T08:06:05.451Z,97451.44
2018-06-23T08:08:32.783Z,97455.50
2018-06-23T08:11:00.134Z,97452.38
2018-06-23T08:13:27.600Z,97451.73
2018-06-23T08:15:54.783Z,97462.66
2018-06-23T08:18:22.105Z,97449.43
2018-06-23T08:20:49.454Z,97366.30
2018-06-23T08:23:16.787Z,97447.71
2018-06-23T08:25:44.178Z,97449.05
2018-06-23T08:28:11.532Z,97439.22
2018-06-23T08:30:39.026Z,97447.71
2018-06-23T08:33:06.417Z,97438.56
2018-06-23T08:35:33.885Z,97449.38
2018-06-23T08:38:01.286Z,97431.20
2018-06-23T08:40:28.695Z,97430.70
2018-06-23T08:42:56.022Z,97440.91
2018-06-23T08:45:23.354Z,97444.12
2018-06-23T08:47:50.786Z,97442.83
2018-06-23T08:50:18.118Z,97447.16
2018-06-23T08:52:45.464Z,97450.05
2018-06-23T08:55:12.843Z,97435.28
2018-06-23T08:57:40.250Z,97439.34
2018-06-23T09:00:08.986Z,97440.55
2018-06-23T09:02:36.430Z,97439.48
2018-06-23T09:05:04.240Z,97441.02
2018-06-23T09:07:31.622Z,97439.20
2018-06-23T09:09:59.012Z,97438.38
2018-06-23T09:12:26.731Z,97438.17
2018-06-23T09:14:54.880Z,97433.81
2018-06-23T09:17:22.271Z,97436.80
2018-06-23T09:19:49.612Z,97436.83
2018-06-23T09:22:16.913Z,97435.16
2018-06-23T09:24:44.140Z,97441.97
2018-06-23T09:27:11.486Z,97441.63
2018-06-23T09:29:46.390Z,97439.59
2018-06-23T09:32:13.780Z,97437.03
2018-06-23T09:34:41.390Z,97436.70
2018-06-23T09:37:08.776Z,97433.14
2018-06-23T09:39:36.437Z,97430.28
2018-06-23T09:42:05.463Z,97430.90
2018-06-23T09:44:32.871Z,97444.83
2018-06-23T09:47:00.179Z,97447.61
2018-06-23T09:49:27.529Z,97446.51
2018-06-23T09:51:54.951Z,97450.91
2018-06-23T09:54:22.338Z,97447.23
2018-06-23T09:56:51.338Z,97444.75
2018-06-23T09:59:23.760Z,97442.11
2018-06-23T10:01:51.187Z,97435.28
2018-06-23T10:04:21.642Z,97440.82
2018-06-23T10:06:49.055Z,97438.22
2018-06-23T10:09:16.453Z,97445.56
2018-06-23T10:11:43.810Z,97438.61
2018-06-23T10:14:11.211Z,97437.45
2018-06-23T10:16:38.803Z,97446.57
2018-06-23T10:19:06.180Z,97418.88
2018-06-23T10:21:33.579Z,97419.17
2018-06-23T10:24:00.985Z,97437.64
2018-06-23T10:26:28.448Z,97435.73
2018-06-23T10:28:55.748Z,97434.27
2018-06-23T10:31:23.590Z,97431.87
2018-06-23T10:33:51.442Z,97441.64
2018-06-23T10:36:18.833Z,97436.19
2018-06-23T10:38:46.273Z,97443.61
2018-06-23T10:41:14.800Z,97438.30
2018-06-23T10:43:42.270Z,97433.27
2018-06-23T10:46:09.639Z,97438.80
2018-06-23T10:48:37.100Z,97439.39
2018-06-23T10:51:04.534Z,97440.83
2018-06-23T10:53:31.958Z,97447.45
2018-06-23T10:55:59.253Z,97441.72
2018-06-23T10:58:26.650Z,97439.77
2018-06-23T11:00:54.204Z,97432.48
2018-06-23T11:03:21.580Z,97433.98
2018-06-23T11:05:48.951Z,97428.56
2018-06-23T11:08:16.491Z,97420.38
2018-06-23T11:10:43.900Z,97417.09
2018-06-23T11:13:11.189Z,97414.20
2018-06-23T11:15:38.684Z,97407.66
2018-06-23T11:18:06.049Z,97403.81
2018-06-23T11:20:33.505Z,97391.44
2018-06-23T11:23:00.923Z,97396.00
2018-06-23T11:25:28.288Z,97398.53
2018-06-23T11:27:57.459Z,97392.66
2018-06-23T11:30:24.823Z,97398.09
2018-06-23T11:32:52.431Z,97396.22
2018-06-23T11:35:31.836Z,97399.00
2018-06-23T11:38:01.854Z,97396.71
2018-06-23T11:40:29.769Z,97396.91
2018-06-23T11:42:57.190Z,97391.63
2018-06-23T11:45:24.510Z,97394.25
2018-06-23T11:47:51.967Z,97393.38
2018-06-23T11:50:19.410Z,97386.69
2018-06-23T11:52:49.061Z,97379.58
2018-06-23T11:55:16.546Z,97374.61
2018-06-23T11:57:43.868Z,97374.66
2018-06-23T12:00:11.187Z,97365.72
2018-06-23T12:02:38.584Z,97363.41
2018-06-23T12:05:05.966Z,97371.06
2018-06-23T12:07:33.314Z,97371.73
2018-06-23T12:10:00.702Z,97365.11
2018-06-23T12:12:28.160Z,97364.56
2018-06-23T12:15:08.368Z,97354.03
2018-06-23T12:17:35.744Z,97352.02
2018-06-23T12:20:03.257Z,97346.88
2018-06-23T12:22:30.789Z,97352.23
2018-06-23T12:24:58.186Z,97346.31
2018-06-23T12:27:25.633Z,97338.17
2018-06-23T12:29:52.967Z,97332.78
2018-06-23T12:32:20.360Z,97333.48
2018-06-23T12:34:47.780Z,97341.09
2018-06-23T12:37:16.484Z,97343.45
2018-06-23T12:39:49.002Z,97333.95
2018-06-23T12:42:19.982Z,97332.70
2018-06-23T12:44:47.322Z,97327.91
2018-06-23T12:47:14.633Z,97314.44
2018-06-23T12:49:41.942Z,97317.99
2018-06-23T12:52:09.360Z,97319.94
2018-06-23T12:54:36.711Z,97318.67
2018-06-23T12:57:04.108Z,97310.37
2018-06-23T12:59:32.864Z,97313.25
2018-06-23T13:02:00.210Z,97308.11
2018-06-23T13:04:27.575Z,97310.67
2018-06-23T13:06:54.879Z,97306.14
2018-06-23T13:09:22.252Z,97299.55
2018-06-23T13:11:49.641Z,97300.80
2018-06-23T13:14:17.040Z,97298.62
2018-06-23T13:16:44.438Z,97294.20
2018-06-23T13:19:11.844Z,97290.91
2018-06-23T13:21:39.239Z,97298.05
2018-06-23T13:24:06.625Z,97293.81
2018-06-23T13:26:34.056Z,97294.64
2018-06-23T13:29:01.490Z,97290.66
2018-06-23T13:31:28.768Z,97279.09
2018-06-23T13:33:56.115Z,97277.05
2018-06-23T13:36:23.438Z,97275.75
2018-06-23T13:38:50.778Z,97277.59
2018-06-23T13:41:18.204Z,97267.50
2018-06-23T13:43:45.519Z,97274.77
2018-06-23T13:46:12.880Z,97272.41
2018-06-23T13:48:40.279Z,97272.08
2018-06-23T13:51:07.661Z,97276.30
2018-06-23T13:53:35.027Z,97266.15
2018-06-23T13:56:02.527Z,97267.52
2018-06-23T13:58:29.891Z,97266.45
2018-06-23T14:00:57.253Z,97271.36
2018-06-23T14:03:26.541Z,97274.47
2018-06-23T14:05:54.004Z,97273.27
2018-06-23T14:08:21.540Z,97271.67
2018-06-23T14:10:48.864Z,97273.39
2018-06-23T14:13:16.233Z,97276.45
2018-06-23T14:15:43.581Z,97268.75
2018-06-23T14:18:11.041Z,97267.13
2018-06-23T14:20:38.425Z,97258.85
2018-06-23T14:23:05.762Z,97267.50
2018-06-23T14:25:33.158Z,97256.01
2018-06-23T14:28:00.514Z,97257.19
2018-06-23T14:30:27.927Z,97257.16
2018-06-23T14:32:55.259Z,97263.85
2018-06-23T14:35:22.698Z,97263.50
2018-06-23T14:37:50.084Z,97267.98
2018-06-23T14:40:17.468Z,97270.14
2018-06-23T14:42:44.846Z,97261.33
2018-06-23T14:45:12.199Z,97262.33
2018-06-23T14:47:39.574Z,97259.50
2018-06-23T14:50:06.966Z,97260.16
2018-06-23T14:52:34.319Z,97259.84
2018-06-23T14:55:01.694Z,97260.84
2018-06-23T14:57:29.209Z,97255.86
2018-06-23T14:59:56.646Z,97253.11
2018-06-23T15:02:24.075Z,97254.46
2018-06-23T15:04:51.367Z,97258.51
2018-06-23T15:07:18.795Z,97256.45
2018-06-23T15:09:57.486Z,97261.75
2018-06-23T15:12:36.513Z,97250.50
2018-06-23T15:15:03.955Z,97243.13
2018-06-23T15:17:31.443Z,97242.86
2018-06-23T15:19:58.879Z,97255.84
2018-06-23T15:22:26.275Z,97249.51
2018-06-23T15:24:53.643Z,97246.86
2018-06-23T15:27:22.012Z,97244.53
2018-06-23T15:29:49.317Z,97241.53
2018-06-23T15:32:16.648Z,97244.52
2018-06-23T15:34:43.990Z,97239.86
2018-06-23T15:37:11.396Z,97233.54
2018-06-23T15:39:38.798Z,97231.32
2018-06-23T15:42:06.142Z,97231.49
2018-06-23T15:44:33.560Z,97223.38
2018-06-23T15:47:00.913Z,97222.56
2018-06-23T15:49:28.303Z,97223.55
2018-06-23T15:51:55.649Z,97222.31
2018-06-23T15:54:23.039Z,97222.80
2018-06-23T15:56:50.333Z,97219.95
2018-06-23T15:59:18.077Z,97217.42
2018-06-23T16:01:45.517Z,97212.64
2018-06-23T16:04:12.857Z,97213.61
2018-06-23T16:06:40.231Z,97216.64
2018-06-23T16:09:09.181Z,97208.69
2018-06-23T16:11:37.565Z,97213.33
2018-06-23T16:14:05.068Z,97212.67
2018-06-23T16:16:32.552Z,97209.69
2018-06-23T16:18:59.932Z,97210.53
2018-06-23T16:21:27.481Z,97211.16
2018-06-23T16:23:54.784Z,97191.80
2018-06-23T16:26:22.143Z,97202.84
2018-06-23T16:28:49.599Z,97203.17
2018-06-23T16:31:17.083Z,97210.14
2018-06-23T16:33:50.869Z,97204.26
2018-06-23T16:36:18.348Z,97200.41
2018-06-23T16:38:48.867Z,97199.34
2018-06-23T16:41:16.405Z,97198.33
2018-06-23T16:43:43.780Z,97199.62
2018-06-23T16:46:11.169Z,97193.61
2018-06-23T16:48:38.612Z,97190.42
2018-06-23T16:51:06.001Z,97193.11
2018-06-23T16:53:33.287Z,97186.48
2018-06-23T16:56:00.608Z,97183.97
2018-06-23T16:58:27.910Z,97186.02
2018-06-23T17:00:55.296Z,97159.42
2018-06-23T17:03:22.679Z,97190.42
2018-06-23T17:05:50.161Z,97190.44
2018-06-23T17:08:17.594Z,97190.77
2018-06-23T17:10:45.019Z,97187.67
2018-06-23T17:13:12.393Z,97188.84
2018-06-23T17:15:40.092Z,97194.17
2018-06-23T17:18:07.725Z,97188.13
2018-06-23T17:20:35.031Z,97192.31
2018-06-23T17:23:02.384Z,97191.88
2018-06-23T17:25:29.803Z,97194.70
2018-06-23T17:27:59.350Z,97196.05
2018-06-23T17:30:26.924Z,97192.72
2018-06-23T17:32:56.110Z,97193.10
2018-06-23T17:35:23.520Z,97195.01
2018-06-23T17:37:51.094Z,97205.72
2018-06-23T17:40:18.376Z,97207.59
2018-06-23T17:42:46.284Z,97187.08
2018-06-23T17:45:13.776Z,97204.69
2018-06-23T17:47:41.148Z,97209.97
2018-06-23T17:50:08.697Z,97211.63
2018-06-23T17:52:37.404Z,97210.73
2018-06-23T17:55:05.011Z,97211.29
2018-06-23T17:57:35.134Z,97210.33
2018-06-23T18:00:06.166Z,97207.81
2018-06-23T18:02:34.914Z,97210.67
2018-06-23T18:05:03.604Z,97185.45
2018-06-23T18:07:31.190Z,97214.09
2018-06-23T18:09:58.601Z,97213.16
2018-06-23T18:12:26.049Z,97213.70
2018-06-23T18:14:54.528Z,97210.98
2018-06-23T18:17:21.897Z,97208.12
2018-06-23T18:19:49.276Z,97207.81
2018-06-23T18:22:16.677Z,97214.91
2018-06-23T18:24:44.049Z,97213.95
2018-06-23T18:27:11.400Z,97220.95
2018-06-23T18:29:38.731Z,97213.73
2018-06-23T18:32:07.329Z,97220.35
2018-06-23T18:34:35.114Z,97212.84
2018-06-23T18:37:03.264Z,97220.54
2018-06-23T18:39:30.591Z,97228.75
2018-06-23T18:41:57.960Z,97228.07
2018-06-23T18:44:25.295Z,97226.98
2018-06-23T18:46:52.718Z,97228.58
2018-06-23T18:49:20.120Z,97226.12
2018-06-23T18:51:48.209Z,97227.25
2018-06-23T18:54:16.661Z,97232.42
2018-06-23T18:56:44.070Z,97229.31
2018-06-23T18:59:11.462Z,97232.35
2018-06-23T19:01:45.091Z,97229.83
2018-06-23T19:04:13.205Z,97228.98
2018-06-23T19:06:43.794Z,97230.95
2018-06-23T19:09:14.441Z,97232.05
2018-06-23T19:11:43.281Z,97230.02
2018-06-23T19:14:13.784Z,97234.70
2018-06-23T19:16:41.157Z,97230.48
2018-06-23T19:19:08.466Z,97233.75
2018-06-23T19:21:35.800Z,97232.78
2018-06-23T19:24:08.521Z,97233.41
2018-06-23T19:26:39.826Z,97233.19
2018-06-23T19:29:13.131Z,97236.04
2018-06-23T19:31:45.337Z,97237.79
2018-06-23T19:34:14.162Z,97244.91
2018-06-23T19:36:47.440Z,97234.63
2018-06-23T19:39:15.190Z,97243.02
2018-06-23T19:41:42.640Z,97243.16
2018-06-23T19:44:10.205Z,97249.14
2018-06-23T19:46:37.452Z,97261.72
2018-06-23T19:49:10.588Z,97260.59
2018-06-23T19:51:38.136Z,97257.95
2018-06-23T19:54:05.462Z,97254.84
2018-06-23T19:56:41.904Z,97253.92
2018-06-23T19:59:09.747Z,97255.61
2018-06-23T20:01:38.700Z,97253.34
2018-06-23T20:04:06.067Z,97261.70
2018-06-23T20:06:33.436Z,97139.82
2018-06-23T20:09:00.794Z,97264.10
2018-06-23T20:11:28.218Z,97263.75
2018-06-23T20:13:55.529Z,97270.63
2018-06-23T20:16:22.849Z,97263.27
2018-06-23T20:18:51.226Z,97264.05
2018-06-23T20:21:18.656Z,97262.73
2018-06-23T20:23:46.097Z,97260.22
2018-06-23T20:26:13.525Z,97253.67
2018-06-23T20:28:40.860Z,97258.20
2018-06-23T20:31:08.249Z,97253.29
2018-06-23T20:33:35.645Z,97260.71
2018-06-23T20:36:03.608Z,97269.67
2018-06-23T20:38:30.990Z,97266.22
2018-06-23T20:40:58.699Z,97272.65
2018-06-23T20:43:26.030Z,97276.70
2018-06-23T20:45:53.424Z,97272.16
2018-06-23T20:48:20.741Z,97275.03
2018-06-23T20:50:48.126Z,97272.72
2018-06-23T20:53:15.482Z,97275.13
2018-06-23T20:55:42.952Z,97272.00
2018-06-23T20:58:10.288Z,97273.05
2018-06-23T21:00:37.628Z,97276.19
2018-06-23T21:03:05.010Z,97274.72
2018-06-23T21:05:32.345Z,97270.42
2018-06-23T21:07:59.748Z,97272.95
2018-06-23T21:10:36.516Z,97269.02
2018-06-23T21:13:03.836Z,97265.27
2018-06-23T21:15:32.177Z,97271.23
2018-06-23T21:18:00.189Z,97270.38
2018-06-23T21:20:30.439Z,97270.86
2018-06-23T21:23:02.185Z,97267.89
2018-06-23T21:25:34.652Z,97270.38
2018-06-23T21:28:02.901Z,97260.56
2018-06-23T21:30:30.474Z,97256.63
2018-06-23T21:33:08.720Z,97260.59
2018-06-23T21:35:36.136Z,97253.77
2018-06-23T21:38:05.043Z,97257.45
2018-06-23T21:40:34.843Z,97257.89
2018-06-23T21:43:05.243Z,97256.34
2018-06-23T21:45:34.107Z,97263.45
2018-06-23T21:48:03.064Z,97259.23
2018-06-23T21:50:32.450Z,97263.27
2018-06-23T21:52:59.960Z,97259.48
2018-06-23T21:55:27.446Z,97261.00
2018-06-23T21:57:54.812Z,97258.61
2018-06-23T22:00:30.732Z,97257.66
2018-06-23T22:02:58.704Z,97257.73
2018-06-23T22:05:26.039Z,97257.13
2018-06-23T22:07:53.478Z,97253.86
2018-06-23T22:10:20.930Z,97254.59
2018-06-23T22:12:48.341Z,97255.05
2018-06-23T22:15:19.436Z,97250.13
2018-06-23T22:17:46.867Z,97251.70
2018-06-23T22:20:14.288Z,97246.68
2018-06-23T22:22:41.639Z,97249.36
2018-06-23T22:25:09.033Z,97249.99
2018-06-23T22:27:36.915Z,97250.98
2018-06-23T22:30:04.442Z,97250.45
2018-06-23T22:32:31.822Z,97246.68
2018-06-23T22:34:59.201Z,97254.44
2018-06-23T22:37:26.708Z,97251.69
2018-06-23T22:39:54.058Z,97245.28
2018-06-23T22:42:21.373Z,97245.60
2018-06-23T22:44:48.805Z,97239.88
2018-06-23T22:47:16.210Z,96840.59
2018-06-23T22:49:43.513Z,97249.31
2018-06-23T22:52:10.973Z,97244.08
2018-06-23T22:54:38.311Z,97248.14
2018-06-23T22:57:05.935Z,97247.96
2018-06-23T22:59:33.164Z,97253.61
2018-06-23T23:02:00.592Z,97252.89
2018-06-23T23:04:27.896Z,97250.09
2018-06-23T23:06:55.307Z,97250.05
2018-06-23T23:09:22.569Z,97251.45
2018-06-23T23:11:49.899Z,97245.48
2018-06-23T23:14:17.256Z,97243.59
2018-06-23T23:16:44.633Z,97247.73
2018-06-23T23:19:11.933Z,97246.74
2018-06-23T23:21:39.272Z,97241.02
2018-06-23T23:24:06.665Z,97215.58
2018-06-23T23:26:33.977Z,97240.96
2018-06-23T23:29:01.341Z,97236.48
2018-06-23T23:31:28.760Z,97238.69
2018-06-23T23:33:56.239Z,97237.38
2018-06-23T23:36:23.661Z,97236.47
2018-06-23T23:38:51.018Z,97236.33
2018-06-23T23:41:18.356Z,97236.14
2018-06-23T23:43:45.694Z,97234.96
2018-06-23T23:46:12.987Z,97229.66
2018-06-23T23:48:40.411Z,97235.84
2018-06-23T23:51:10.754Z,97228.75
2018-06-23T23:53:38.029Z,97225.04
2018-06-23T23:56:07.387Z,97226.73
2018-06-23T23:58:37.726Z,97219.00
